createdAt,value
2022-09-25T00:00:09.772Z,99980.25
2022-09-25T00:02:38.814Z,99977.53
2022-09-25T00:05:07.815Z,99979.44
2022-09-25T00:07:35.721Z,99980.25
2022-09-25T00:10:05.206Z,99984.00
2022-09-25T00:12:33.090Z,99980.69
2022-09-25T00:15:00.957Z,99984.22
2022-09-25T00:17:28.852Z,99990.69
2022-09-25T00:19:55.780Z,99989.88
2022-09-25T00:22:24.871Z,99986.56
2022-09-25T00:24:52.803Z,99991.94
2022-09-25T00:27:22.203Z,99982.19
2022-09-25T00:29:50.133Z,99990.28
2022-09-25T00:32:18.074Z,99984.88
2022-09-25T00:34:46.142Z,99983.25
2022-09-25T00:37:14.101Z,99977.84
2022-09-25T00:39:42.036Z,99977.84
2022-09-25T00:42:12.440Z,99971.38
2022-09-25T00:45:05.500Z,99975.16
2022-09-25T00:47:46.092Z,99971.63
2022-09-25T00:50:26.804Z,99972.44
2022-09-25T00:52:54.873Z,99970.81
2022-09-25T00:55:24.020Z,99970.00
2022-09-25T00:57:53.548Z,99971.63
2022-09-25T01:00:23.086Z,99966.22
2022-09-25T01:02:54.353Z,99955.44
2022-09-25T01:05:23.320Z,99958.34
2022-09-25T01:07:51.449Z,99964.19
2022-09-25T01:10:19.980Z,99966.91
2022-09-25T01:12:48.506Z,99967.72
2022-09-25T01:15:17.675Z,99962.56
2022-09-25T01:17:57.306Z,99958.78
2022-09-25T01:20:34.496Z,99958.19
2022-09-25T01:23:17.748Z,99948.47
2022-09-25T01:25:55.406Z,99943.25
2022-09-25T01:28:43.324Z,99945.16
2022-09-25T01:31:19.294Z,99948.09
2022-09-25T01:33:49.653Z,99941.84
2022-09-25T01:36:20.939Z,99941.84
2022-09-25T01:38:51.320Z,99937.50
2022-09-25T01:41:21.329Z,99937.72
2022-09-25T01:43:51.315Z,99939.38
2022-09-25T01:46:22.673Z,99940.22
2022-09-25T01:48:51.581Z,99936.44
2022-09-25T01:51:22.596Z,99939.16
2022-09-25T01:53:52.942Z,99940.22
2022-09-25T01:56:25.692Z,99949.13
2022-09-25T01:58:55.230Z,99947.25
2022-09-25T02:01:27.570Z,99943.72
2022-09-25T02:03:57.637Z,99932.09
2022-09-25T02:06:25.607Z,99940.22
2022-09-25T02:08:55.048Z,99939.38
2022-09-25T02:11:22.973Z,99936.91
2022-09-25T02:13:53.016Z,99929.84
2022-09-25T02:16:23.063Z,99933.59
2022-09-25T02:19:10.642Z,99931.94
2022-09-25T02:21:44.107Z,99925.91
2022-09-25T02:24:16.824Z,99930.28
2022-09-25T02:26:44.725Z,99922.66
2022-09-25T02:29:12.942Z,99925.34
2022-09-25T02:31:42.492Z,99925.34
2022-09-25T02:34:14.988Z,99925.56
2022-09-25T02:36:44.826Z,99916.66
2022-09-25T02:39:13.137Z,99920.97
2022-09-25T02:41:48.199Z,99915.81
2022-09-25T02:44:18.887Z,99922.03
2022-09-25T02:46:52.327Z,99920.38
2022-09-25T02:49:25.537Z,99914.97
2022-09-25T02:51:56.740Z,99914.97
2022-09-25T02:54:26.752Z,99917.69
2022-09-25T02:57:01.407Z,99919.34
2022-09-25T02:59:34.026Z,99911.25
2022-09-25T03:02:01.995Z,99924.75
2022-09-25T03:04:32.260Z,99929.06
2022-09-25T03:07:00.185Z,99929.31
2022-09-25T03:09:27.577Z,99926.63
2022-09-25T03:11:57.615Z,99921.22
2022-09-25T03:14:25.876Z,99922.03
2022-09-25T03:16:56.346Z,99917.69
2022-09-25T03:19:24.572Z,99909.81
2022-09-25T03:21:54.252Z,99914.63
2022-09-25T03:24:22.331Z,99913.78
2022-09-25T03:26:50.350Z,99923.97
2022-09-25T03:29:18.403Z,99921.28
2022-09-25T03:31:46.330Z,99919.66
2022-09-25T03:34:15.083Z,99926.06
2022-09-25T03:36:43.044Z,99921.72
2022-09-25T03:39:14.873Z,99915.28
2022-09-25T03:41:43.327Z,99920.91
2022-09-25T03:44:11.377Z,99920.09
2022-09-25T03:46:39.389Z,99912.22
2022-09-25T03:49:07.380Z,99916.56
2022-09-25T03:51:35.449Z,99917.81
2022-09-25T03:54:04.252Z,99915.13
2022-09-25T03:56:33.735Z,99913.03
2022-09-25T03:59:01.657Z,99920.09
2022-09-25T04:01:29.835Z,99919.25
2022-09-25T04:03:57.849Z,99915.53
2022-09-25T04:06:26.845Z,99920.09
2022-09-25T04:08:54.927Z,99908.25
2022-09-25T04:11:23.898Z,99911.75
2022-09-25T04:13:53.213Z,99909.31
2022-09-25T04:16:21.869Z,99904.72
2022-09-25T04:18:49.917Z,99903.06
2022-09-25T04:21:17.821Z,99904.72
2022-09-25T04:24:07.745Z,99907.63
2022-09-25T04:26:35.660Z,99907.28
2022-09-25T04:29:05.453Z,99906.44
2022-09-25T04:31:33.462Z,99901.06
2022-09-25T04:34:02.174Z,99900.22
2022-09-25T04:36:30.068Z,99902.69
2022-09-25T04:38:58.001Z,99900.44
2022-09-25T04:41:25.882Z,99895.06
2022-09-25T04:43:53.831Z,99896.09
2022-09-25T04:46:23.274Z,99898.78
2022-09-25T04:48:51.326Z,99896.53
2022-09-25T04:51:19.284Z,99903.19
2022-09-25T04:53:47.352Z,99905.69
2022-09-25T04:56:16.657Z,99905.69
2022-09-25T04:58:46.285Z,99905.25
2022-09-25T05:01:14.306Z,99912.50
2022-09-25T05:03:43.978Z,99903.59
2022-09-25T05:06:11.941Z,99909.81
2022-09-25T05:08:39.844Z,99908.19
2022-09-25T05:11:07.964Z,99913.34
2022-09-25T05:13:37.770Z,99922.47
2022-09-25T05:16:05.868Z,99924.94
2022-09-25T05:18:33.863Z,99932.22
2022-09-25T05:21:05.780Z,99935.97
2022-09-25T05:23:33.681Z,99934.09
2022-09-25T05:26:02.436Z,99931.41
2022-09-25T05:28:30.697Z,99929.75
2022-09-25T05:31:00.189Z,99931.59
2022-09-25T05:33:28.176Z,99935.16
2022-09-25T05:35:56.117Z,99948.66
2022-09-25T05:38:25.445Z,99942.41
2022-09-25T05:40:53.443Z,99959.66
2022-09-25T05:43:21.794Z,99965.03
2022-09-25T05:45:55.504Z,99956.34
2022-09-25T05:48:23.533Z,99956.34
2022-09-25T05:50:53.281Z,99950.94
2022-09-25T05:53:21.278Z,99952.00
2022-09-25T05:55:58.271Z,99941.22
2022-09-25T05:58:26.435Z,99943.09
2022-09-25T06:00:55.054Z,99924.78
2022-09-25T06:03:24.137Z,99928.34
2022-09-25T06:05:52.114Z,99929.97
2022-09-25T06:08:20.125Z,99926.22
2022-09-25T06:10:54.943Z,99925.19
2022-09-25T06:13:23.420Z,99927.88
2022-09-25T06:15:52.518Z,99931.41
2022-09-25T06:18:21.365Z,99933.28
2022-09-25T06:20:49.548Z,99937.63
2022-09-25T06:23:17.497Z,99937.63
2022-09-25T06:25:45.514Z,99955.22
2022-09-25T06:28:14.840Z,99950.66
2022-09-25T06:30:42.780Z,99955.84
2022-09-25T06:33:12.976Z,99952.91
2022-09-25T06:35:42.451Z,99957.25
2022-09-25T06:38:13.132Z,99949.16
2022-09-25T06:40:41.721Z,99942.72
2022-09-25T06:43:11.733Z,99947.44
2022-09-25T06:45:46.659Z,99941.59
2022-09-25T06:48:15.990Z,99938.44
2022-09-25T06:50:44.652Z,99944.44
2022-09-25T06:53:12.682Z,99945.28
2022-09-25T06:55:40.696Z,99941.53
2022-09-25T06:58:11.224Z,99942.34
2022-09-25T07:00:40.572Z,99951.28
2022-09-25T07:03:26.717Z,99952.69
2022-09-25T07:05:54.675Z,99951.22
2022-09-25T07:08:22.637Z,99961.81
2022-09-25T07:10:50.612Z,99956.19
2022-09-25T07:13:18.636Z,99940.56
2022-09-25T07:15:53.432Z,99945.75
2022-09-25T07:18:21.559Z,99950.34
2022-09-25T07:20:49.545Z,99950.50
2022-09-25T07:23:17.765Z,99954.63
2022-09-25T07:25:46.234Z,99960.59
2022-09-25T07:28:15.990Z,99964.72
2022-09-25T07:30:44.119Z,99965.56
2022-09-25T07:33:32.159Z,99971.53
2022-09-25T07:36:02.596Z,99960.31
2022-09-25T07:38:30.657Z,99957.16
2022-09-25T07:40:58.967Z,99949.66
2022-09-25T07:43:27.208Z,99948.34
2022-09-25T07:45:55.214Z,99950.63
2022-09-25T07:48:24.733Z,99956.38
2022-09-25T07:50:52.819Z,99954.28
2022-09-25T07:53:20.834Z,99966.50
2022-09-25T07:55:48.852Z,99955.47
2022-09-25T07:58:19.595Z,99959.81
2022-09-25T08:00:47.507Z,99954.44
2022-09-25T08:03:15.657Z,99953.38
2022-09-25T08:05:45.082Z,99960.41
2022-09-25T08:08:13.020Z,99970.78
2022-09-25T08:10:40.931Z,99960.78
2022-09-25T08:13:08.867Z,99956.00
2022-09-25T08:15:36.857Z,99957.41
2022-09-25T08:18:04.977Z,99964.44
2022-09-25T08:20:32.913Z,99977.75
2022-09-25T08:23:02.182Z,99964.00
2022-09-25T08:25:30.053Z,99971.63
2022-09-25T08:27:57.979Z,99961.44
2022-09-25T08:30:26.152Z,99956.84
2022-09-25T08:32:54.224Z,99957.66
2022-09-25T08:35:22.331Z,99953.31
2022-09-25T08:37:50.235Z,99958.50
2022-09-25T08:40:20.878Z,99963.91
2022-09-25T08:42:49.897Z,99970.34
2022-09-25T08:45:43.590Z,99970.13
2022-09-25T08:48:33.964Z,99968.84
2022-09-25T08:51:05.435Z,99961.09
2022-09-25T08:53:33.875Z,99958.78
2022-09-25T08:56:17.765Z,99964.56
2022-09-25T08:58:49.512Z,99965.38
2022-09-25T09:01:19.724Z,99961.19
2022-09-25T09:03:50.041Z,99957.19
2022-09-25T09:06:18.516Z,99953.22
2022-09-25T09:08:49.005Z,99949.19
2022-09-25T09:11:21.182Z,99948.16
2022-09-25T09:13:51.969Z,99942.75
2022-09-25T09:16:22.718Z,99940.66
2022-09-25T09:18:50.651Z,99937.69
2022-09-25T09:21:22.564Z,99940.19
2022-09-25T09:23:52.857Z,99938.06
2022-09-25T09:26:24.235Z,99935.94
2022-09-25T09:29:20.029Z,99932.78
2022-09-25T09:31:52.290Z,99920.66
2022-09-25T09:34:53.579Z,99907.13
2022-09-25T09:37:24.049Z,99911.97
2022-09-25T09:39:58.964Z,99904.22
2022-09-25T09:42:32.491Z,99902.09
2022-09-25T09:45:02.330Z,99901.63
2022-09-25T09:47:39.369Z,99900.00
2022-09-25T09:50:21.355Z,99899.16
2022-09-25T09:52:50.955Z,99898.34
2022-09-25T09:55:22.403Z,99897.31
2022-09-25T09:57:53.157Z,99894.81
2022-09-25T10:00:22.867Z,99899.16
2022-09-25T10:02:53.403Z,99902.34
2022-09-25T10:05:24.905Z,99900.22
2022-09-25T10:07:52.958Z,99902.09
2022-09-25T10:10:20.909Z,99906.91
2022-09-25T10:12:50.921Z,99901.28
2022-09-25T10:15:27.860Z,99912.94
2022-09-25T10:17:56.024Z,99908.56
2022-09-25T10:20:24.330Z,99915.03
2022-09-25T10:22:53.755Z,99914.22
2022-09-25T10:25:36.204Z,99905.84
2022-09-25T10:28:24.345Z,99910.22
2022-09-25T10:30:53.749Z,99910.81
2022-09-25T10:33:22.673Z,99913.28
2022-09-25T10:35:51.286Z,99908.69
2022-09-25T10:38:31.232Z,99909.75
2022-09-25T10:41:02.917Z,99895.16
2022-09-25T10:43:30.812Z,99892.44
2022-09-25T10:46:14.159Z,99892.44
2022-09-25T10:48:59.759Z,99890.81
2022-09-25T10:51:27.771Z,99890.00
2022-09-25T10:54:11.715Z,99890.00
2022-09-25T10:56:39.925Z,99876.69
2022-09-25T10:59:15.081Z,99879.41
2022-09-25T11:01:44.657Z,99876.69
2022-09-25T11:04:15.988Z,99871.56
2022-09-25T11:06:45.287Z,99868.00
2022-09-25T11:09:14.765Z,99862.59
2022-09-25T11:11:42.869Z,99860.13
2022-09-25T11:14:21.023Z,99857.66
2022-09-25T11:16:52.676Z,99862.25
2022-09-25T11:19:29.668Z,99864.94
2022-09-25T11:22:08.117Z,99867.66
2022-09-25T11:25:01.628Z,99868.47
2022-09-25T11:27:34.375Z,99866.03
2022-09-25T11:30:05.040Z,99862.25
2022-09-25T11:32:39.287Z,99845.81
2022-09-25T11:35:41.265Z,99855.09
2022-09-25T11:38:15.794Z,99848.72
2022-09-25T11:41:03.327Z,99850.72
2022-09-25T11:43:47.348Z,99849.09
2022-09-25T11:46:22.194Z,99842.59
2022-09-25T11:48:56.551Z,99837.19
2022-09-25T11:51:32.322Z,99839.91
2022-09-25T11:54:25.295Z,99829.91
2022-09-25T11:56:54.450Z,99832.88
2022-09-25T11:59:28.767Z,99834.72
2022-09-25T12:01:59.156Z,99827.69
2022-09-25T12:04:41.518Z,99810.03
2022-09-25T12:07:18.531Z,99809.44
2022-09-25T12:10:03.680Z,99816.16
2022-09-25T12:12:35.288Z,99818.50
2022-09-25T12:15:09.670Z,99807.06
2022-09-25T12:17:41.257Z,99804.84
2022-09-25T12:20:16.127Z,99806.72
2022-09-25T12:22:49.801Z,99811.75
2022-09-25T12:25:26.600Z,99808.47
2022-09-25T12:27:59.075Z,99801.19
2022-09-25T12:30:30.585Z,99799.31
2022-09-25T12:33:07.938Z,99797.66
2022-09-25T12:35:56.672Z,99798.72
2022-09-25T12:38:29.286Z,99795.19
2022-09-25T12:41:00.803Z,99790.84
2022-09-25T12:43:33.606Z,99785.66
2022-09-25T12:46:03.746Z,99780.25
2022-09-25T12:48:34.629Z,99767.00
2022-09-25T12:51:07.030Z,99761.59
2022-09-25T12:53:37.338Z,99761.59
2022-09-25T12:56:12.402Z,99759.72
2022-09-25T12:58:48.265Z,99767.22
2022-09-25T13:01:20.671Z,99759.13
2022-09-25T13:03:52.138Z,99757.50
2022-09-25T13:06:25.434Z,99755.81
2022-09-25T13:08:55.900Z,99754.41
2022-09-25T13:11:32.136Z,99746.56
2022-09-25T13:14:00.241Z,99743.00
2022-09-25T13:16:28.279Z,99745.97
2022-09-25T13:19:11.594Z,99740.56
2022-09-25T13:21:41.755Z,99731.88
2022-09-25T13:24:13.774Z,99728.56
2022-09-25T13:26:45.983Z,99723.16
2022-09-25T13:29:23.477Z,99723.16
2022-09-25T13:31:53.515Z,99719.91
2022-09-25T13:34:22.179Z,99719.91
2022-09-25T13:36:52.205Z,99714.50
2022-09-25T13:39:44.702Z,99716.59
2022-09-25T13:42:23.911Z,99718.47
2022-09-25T13:45:06.413Z,99712.47
2022-09-25T13:47:49.459Z,99705.66
2022-09-25T13:50:39.250Z,99706.72
2022-09-25T13:53:22.158Z,99705.91
2022-09-25T13:56:23.737Z,99705.53
2022-09-25T13:59:16.516Z,99702.25
2022-09-25T14:01:45.177Z,99703.91
2022-09-25T14:04:19.777Z,99704.94
2022-09-25T14:06:51.255Z,99702.25
2022-09-25T14:09:22.081Z,99697.09
2022-09-25T14:11:56.347Z,99694.41
2022-09-25T14:14:27.959Z,99689.81
2022-09-25T14:16:56.640Z,99682.75
2022-09-25T14:19:26.350Z,99682.75
2022-09-25T14:21:54.317Z,99681.13
2022-09-25T14:24:28.981Z,99688.16
2022-09-25T14:26:57.931Z,99685.72
2022-09-25T14:29:26.515Z,99679.50
2022-09-25T14:32:01.462Z,99690.28
2022-09-25T14:34:38.370Z,99698.94
2022-09-25T14:37:16.135Z,99704.34
2022-09-25T14:39:48.046Z,99696.25
2022-09-25T14:42:37.717Z,99700.63
2022-09-25T14:45:14.032Z,99706.03
2022-09-25T14:47:44.557Z,99699.81
2022-09-25T14:50:17.722Z,99700.63
2022-09-25T14:52:45.605Z,99700.63
2022-09-25T14:55:22.221Z,99697.91
2022-09-25T14:57:50.153Z,99696.84
2022-09-25T15:00:20.803Z,99699.56
2022-09-25T15:02:50.801Z,99702.25
2022-09-25T15:05:29.247Z,99696.84
2022-09-25T15:07:59.252Z,99709.31
2022-09-25T15:10:31.396Z,99702.25
2022-09-25T15:13:09.818Z,99691.44
2022-09-25T15:15:38.139Z,99689.81
2022-09-25T15:18:05.220Z,99691.44
2022-09-25T15:20:33.588Z,99685.22
2022-09-25T15:23:03.065Z,99686.03
2022-09-25T15:25:33.256Z,99688.75
2022-09-25T15:28:01.189Z,99686.03
2022-09-25T15:30:29.424Z,99688.75
2022-09-25T15:33:00.916Z,99684.41
2022-09-25T15:35:29.931Z,99682.53
2022-09-25T15:38:03.708Z,99686.03
2022-09-25T15:40:33.022Z,99680.66
2022-09-25T15:43:01.086Z,99680.91
2022-09-25T15:45:44.156Z,99679.84
2022-09-25T15:48:21.961Z,99682.75
2022-09-25T15:50:50.006Z,99686.31
2022-09-25T15:53:24.070Z,99689.81
2022-09-25T15:56:02.785Z,99689.00
2022-09-25T15:58:30.654Z,99690.63
2022-09-25T16:01:17.803Z,99680.91
2022-09-25T16:04:08.839Z,99682.75
2022-09-25T16:06:41.506Z,99682.75
2022-09-25T16:09:11.124Z,99681.13
2022-09-25T16:11:40.992Z,99676.53
2022-09-25T16:14:23.200Z,99677.34
2022-09-25T16:16:52.301Z,99675.72
2022-09-25T16:19:32.680Z,99677.34
2022-09-25T16:22:03.260Z,99674.91
2022-09-25T16:24:31.230Z,99672.81
2022-09-25T16:27:01.346Z,99675.50
2022-09-25T16:29:29.886Z,99680.06
2022-09-25T16:32:01.721Z,99672.81
2022-09-25T16:34:30.540Z,99666.56
2022-09-25T16:37:03.285Z,99673.63
2022-09-25T16:39:32.794Z,99662.00
2022-09-25T16:42:02.297Z,99671.94
2022-09-25T16:44:39.462Z,99670.91
2022-09-25T16:47:18.904Z,99662.81
2022-09-25T16:49:46.911Z,99675.50
2022-09-25T16:52:20.690Z,99678.19
2022-09-25T16:54:53.171Z,99672.81
2022-09-25T16:57:22.918Z,99671.13
2022-09-25T16:59:51.019Z,99680.91
2022-09-25T17:02:38.147Z,99674.66
2022-09-25T17:05:08.529Z,99671.94
2022-09-25T17:07:37.330Z,99688.16
2022-09-25T17:10:05.723Z,99678.41
2022-09-25T17:12:35.142Z,99682.75
2022-09-25T17:15:03.069Z,99673.03
2022-09-25T17:17:32.499Z,99675.72
2022-09-25T17:20:00.559Z,99669.50
2022-09-25T17:22:30.514Z,99678.41
2022-09-25T17:25:00.690Z,99677.34
2022-09-25T17:27:29.344Z,99684.63
2022-09-25T17:29:59.270Z,99690.28
2022-09-25T17:32:29.396Z,99693.00
2022-09-25T17:34:58.442Z,99690.28
2022-09-25T17:37:26.472Z,99683.81
2022-09-25T17:39:54.432Z,99693.56
2022-09-25T17:42:23.369Z,99691.91
2022-09-25T17:44:51.296Z,99674.09
2022-09-25T17:47:22.358Z,99684.03
2022-09-25T17:49:50.273Z,99674.91
2022-09-25T17:52:18.235Z,99686.53
2022-09-25T17:54:46.323Z,99686.53
2022-09-25T17:57:14.251Z,99690.03
2022-09-25T17:59:42.298Z,99694.63
2022-09-25T18:02:14.391Z,99691.91
2022-09-25T18:04:44.694Z,99691.91
2022-09-25T18:07:13.194Z,99690.28
2022-09-25T18:09:41.118Z,99693.81
2022-09-25T18:12:09.461Z,99696.72
2022-09-25T18:14:37.387Z,99706.50
2022-09-25T18:17:05.410Z,99710.22
2022-09-25T18:19:51.034Z,99708.34
2022-09-25T18:22:22.427Z,99700.50
2022-09-25T18:24:56.038Z,99697.78
2022-09-25T18:27:24.084Z,99701.53
2022-09-25T18:29:52.021Z,99696.13
2022-09-25T18:32:19.944Z,99680.78
2022-09-25T18:34:47.876Z,99678.88
2022-09-25T18:37:15.962Z,99682.63
2022-09-25T18:39:48.043Z,99686.19
2022-09-25T18:42:16.029Z,99677.22
2022-09-25T18:44:43.974Z,99680.78
2022-09-25T18:47:11.962Z,99685.09
2022-09-25T18:49:39.896Z,99676.19
2022-09-25T18:52:08.003Z,99677.22
2022-09-25T18:54:35.946Z,99684.28
2022-09-25T18:57:05.253Z,99677.00
2022-09-25T18:59:33.163Z,99680.78
2022-09-25T19:02:01.895Z,99683.22
2022-09-25T19:04:30.027Z,99679.72
2022-09-25T19:06:57.907Z,99665.38
2022-09-25T19:09:27.739Z,99676.19
2022-09-25T19:11:56.274Z,99663.72
2022-09-25T19:14:25.578Z,99662.09
2022-09-25T19:16:53.642Z,99663.72
2022-09-25T19:19:22.447Z,99667.50
2022-09-25T19:21:50.325Z,99659.41
2022-09-25T19:24:18.815Z,99666.69
2022-09-25T19:26:48.096Z,99652.38
2022-09-25T19:29:16.090Z,99662.91
2022-09-25T19:31:45.430Z,99652.38
2022-09-25T19:34:14.469Z,99648.81
2022-09-25T19:36:42.389Z,99651.28
2022-09-25T19:39:10.380Z,99651.50
2022-09-25T19:41:40.816Z,99648.00
2022-09-25T19:44:13.290Z,99647.19
2022-09-25T19:46:42.308Z,99648.00
2022-09-25T19:49:11.828Z,99645.31
2022-09-25T19:51:39.975Z,99648.00
2022-09-25T19:54:08.046Z,99648.00
2022-09-25T19:56:40.493Z,99649.66
2022-09-25T19:59:08.864Z,99647.78
2022-09-25T20:01:36.935Z,99648.00
2022-09-25T20:04:08.404Z,99643.41
2022-09-25T20:06:39.258Z,99648.81
2022-09-25T20:09:07.671Z,99648.81
2022-09-25T20:11:36.321Z,99644.47
2022-09-25T20:14:05.040Z,99642.59
2022-09-25T20:16:33.158Z,99648.00
2022-09-25T20:19:02.812Z,99648.00
2022-09-25T20:21:32.630Z,99651.78
2022-09-25T20:24:03.457Z,99640.97
2022-09-25T20:26:31.622Z,99637.44
2022-09-25T20:29:00.394Z,99642.00
2022-09-25T20:31:29.009Z,99626.88
2022-09-25T20:33:57.082Z,99629.56
2022-09-25T20:36:24.998Z,99626.88
2022-09-25T20:38:52.949Z,99625.25
2022-09-25T20:41:22.733Z,99619.84
2022-09-25T20:43:51.242Z,99612.78
2022-09-25T20:46:20.498Z,99610.09
2022-09-25T20:48:51.171Z,99600.34
2022-09-25T20:51:20.295Z,99594.13
2022-09-25T20:53:54.062Z,99599.53
2022-09-25T20:56:23.341Z,99601.16
2022-09-25T20:58:53.447Z,99600.34
2022-09-25T21:01:22.891Z,99600.34
2022-09-25T21:03:51.372Z,99605.75
2022-09-25T21:06:20.742Z,99600.34
2022-09-25T21:08:48.847Z,99593.06
2022-09-25T21:11:16.784Z,99595.75
2022-09-25T21:13:48.181Z,99591.19
2022-09-25T21:16:16.188Z,99588.50
2022-09-25T21:18:44.193Z,99585.78
2022-09-25T21:21:14.545Z,99586.84
2022-09-25T21:23:42.567Z,99589.56
2022-09-25T21:26:11.273Z,99581.47
2022-09-25T21:28:39.486Z,99582.28
2022-09-25T21:31:10.318Z,99578.75
2022-09-25T21:33:38.445Z,99571.72
2022-09-25T21:36:09.821Z,99553.88
2022-09-25T21:38:38.090Z,99555.75
2022-09-25T21:41:10.665Z,99556.81
2022-09-25T21:43:38.631Z,99552.47
2022-09-25T21:46:09.398Z,99559.25
2022-09-25T21:48:37.574Z,99556.34
2022-09-25T21:51:07.561Z,99552.81
2022-09-25T21:53:35.730Z,99547.44
2022-09-25T21:56:04.568Z,99533.09
2022-09-25T21:58:32.944Z,99540.38
2022-09-25T22:01:05.591Z,99533.94
2022-09-25T22:03:35.409Z,99539.34
2022-09-25T22:06:04.086Z,99528.53
2022-09-25T22:08:32.270Z,99525.84
2022-09-25T22:11:00.843Z,99517.75
2022-09-25T22:13:29.584Z,99513.16
2022-09-25T22:16:01.820Z,99512.34
2022-09-25T22:18:29.843Z,99515.59
2022-09-25T22:20:59.116Z,99521.84
2022-09-25T22:23:27.125Z,99517.25
2022-09-25T22:25:55.026Z,99515.59
2022-09-25T22:28:23.032Z,99518.06
2022-09-25T22:30:51.196Z,99528.06
2022-09-25T22:33:19.174Z,99515.59
2022-09-25T22:35:47.106Z,99511.03
2022-09-25T22:38:16.476Z,99510.19
2022-09-25T22:40:44.577Z,99509.38
2022-09-25T22:43:12.531Z,99514.78
2022-09-25T22:45:40.413Z,99511.28
2022-09-25T22:48:08.782Z,99512.34
2022-09-25T22:50:36.687Z,99510.44
2022-09-25T22:53:04.639Z,99512.34
2022-09-25T22:55:33.876Z,99509.03
2022-09-25T22:58:01.809Z,99508.22
2022-09-25T23:00:29.772Z,99510.69
2022-09-25T23:02:57.691Z,99507.38
2022-09-25T23:05:25.703Z,99500.34
2022-09-25T23:07:53.685Z,99500.34
2022-09-25T23:10:21.610Z,99491.66
2022-09-25T23:12:50.983Z,99494.97
2022-09-25T23:15:18.941Z,99492.47
2022-09-25T23:17:47.069Z,99486.28
2022-09-25T23:20:15.039Z,99491.66
2022-09-25T23:22:42.916Z,99492.75
2022-09-25T23:25:11.181Z,99493.78
2022-09-25T23:27:39.154Z,99490.84
2022-09-25T23:30:10.062Z,99489.22
2022-09-25T23:32:38.380Z,99491.66
2022-09-25T23:35:07.657Z,99490.03
2022-09-25T23:37:35.587Z,99495.44
2022-09-25T23:40:03.472Z,99493.56
2022-09-25T23:42:31.535Z,99495.44
2022-09-25T23:44:59.649Z,99486.53
2022-09-25T23:47:28.968Z,99470.34
2022-09-25T23:49:59.624Z,99472.78
2022-09-25T23:52:31.270Z,99474.88
2022-09-25T23:54:59.407Z,99478.44
2022-09-25T23:57:27.301Z,99481.34
2022-09-25T23:59:55.198Z,99483.81
